METAR AND TAF INFORMATION
METAR FOR TNCA
ADDS - METARS form results

(1834 UTC 23 August 2019)
Data provider http://aviationweather.gov/metar/data/
 
Forecast for: TNCA (QUEEN BEATRIX , AW)
Text: TAF TNCA 231800Z 2318/2418 10020KT 9999 SCT022
Forecast period: 1800 UTC 23 August 2019 to 1800 UTC 24 August 2019
Forecast type: FROM: standard forecast or significant change
Winds: from the E (100 degrees) at 23 MPH (20 knots; 10.3 m/s)
Visibility: 6 or more miles 10+ km)
Ceiling: at least 12,000 feet AGL
Clouds: scattered clouds at 2200 feet AGL
Weather: no significant weather forecast for this period

 AIRPORT MAP

 RUNWAY INFORMATION
Runway 11 Runway length 9000 ft Runway width 148 ft
Runway elevation 12 ft Runway displaced threshold 0 ft Runway heading 104
Runway 29 Runway length 9000 ft Runway width 148 ft
Runway elevation 62 ft Runway displaced threshold 0 ft Runway heading 284

 AIRPORT FREQUENCIES
Type ATIS Name ATIS Frequency 132.1 MHZ
Type GND Name GND Frequency 121.9 MHZ
Type MISC Name SEARCH AND Frequency 123.1 MHZ
Type RMP Name BEATRIX AP Frequency 121.6 MHZ
Type TWR Name BEATRIX TW Frequency 120.9 MHZ

 AIRPORT NEAR NAVIGATION AIDS
Type VOR-DME Name Aruba Frequency 112500 KHZ
Type VOR-DME Name Reina Beatrix Frequency 113800 KHZ



Powered by Virtual Airlines Manager [v2.6.2]